• Join FlightAware (Why Join?)
  • Login
  • US Flag 
04:22PM EDT


 

Airport Tracker/Info


-or-


 

Live Flight TrackerFlight Track Log ✈ N3781T ✈ 17-Jul-2013 ✈ KHAO - KDPA

Flight Track Log - Related Links

Times and Time Zones

All times are in EDT time to prevent confusion due to time zone crossing. See the N3781T flight status page for this flight to view local times or setup timezone preferences in your user account.

Time Position Orientation Groundspeed Altitude Reporting Facility
EDT Latitude Longitude Course Direction KTS MPH feet Rate Location/Type
05:20PM 39.3667 -84.5500 303° West 97 112 1,300  Level Cincinnati TRACON
05:21PM 39.3833 -84.5833 303° West 81 93 1,600 360 Climbing Cincinnati TRACON
05:22PM 39.3833 -84.6000 270° West 81 93 2,000 420 Climbing Cincinnati TRACON
05:23PM 39.3833 -84.6333 270° West 89 102 2,500 420 Climbing Cincinnati TRACON
05:24PM 39.4000 -84.6667 303° West 87 100 2,900 300 Climbing Cincinnati TRACON
05:25PM 39.4036 -84.6831 286° West 86 99 3,100 360 Climbing Indianapolis Center
05:26PM 39.4192 -84.7053 312° West 82 94 3,600 480 Climbing Indianapolis Center
05:27PM 39.4328 -84.7236 314° West 87 100 4,000 360 Climbing Indianapolis Center
05:28PM 39.4511 -84.7461 317° Northwest 86 99 4,300 300 Climbing Indianapolis Center
05:29PM 39.4678 -84.7683 314° West 87 100 4,700 360 Climbing Indianapolis Center
05:30PM 39.4842 -84.7903 314° West 86 99 5,100 360 Climbing Indianapolis Center
05:31PM 39.5008 -84.8125 314° West 86 99 5,500 360 Climbing Indianapolis Center
05:32PM 39.5175 -84.8319 318° Northwest 86 99 5,800 240 Climbing Indianapolis Center
05:32PM 39.5247 -84.8408 316° Northwest 85 98 5,900 180 Climbing Indianapolis Center
05:33PM 39.5381 -84.8547 321° Northwest 88 101 6,000 60 Climbing Indianapolis Center
05:33PM 39.5458 -84.8636 319° Northwest 93 107 6,000  Level Indianapolis Center
05:34PM 39.5622 -84.8839 316° Northwest 112 129 6,000  Level Indianapolis Center
05:35PM 39.5844 -84.9097 318° Northwest 117 135 6,000 -120 Level Indianapolis Center
05:35PM 39.5975 -84.9236 321° Northwest 113 130 5,900  Descending Indianapolis Center
05:36PM 39.6208 -84.9517 317° Northwest 115 132 6,000  Climbing Indianapolis Center
05:37PM 39.6436 -84.9814 315° West 116 133 6,000  Level Indianapolis Center
05:38PM 39.6614 -85.0150 304° West 115 132 6,000 -60 Level Indianapolis Center
05:39PM 39.6842 -85.0472 313° West 118 136 5,900 -60 Descending Indianapolis Center
05:40PM 39.7064 -85.0803 311° West 121 139 5,900  Level Indianapolis Center
05:41PM 39.7325 -85.1189 311° West 120 138 6,000  Climbing Indianapolis Center
05:42PM 39.7550 -85.1522 311° West 121 139 6,000 -60 Level Indianapolis Center
05:43PM 39.7767 -85.1839 312° West 120 138 5,900 -60 Descending Indianapolis Center
05:44PM 39.7958 -85.2183 306° West 120 138 5,900  Level Indianapolis Center
05:46PM 39.8158 -85.2519 308° West 118 136 5,900  Level Indianapolis Center
05:47PM 39.8394 -85.2911 308° West 117 135 5,900  Level Indianapolis Center
05:48PM 39.8600 -85.3250 308° West 118 136 6,000  Climbing Indianapolis Center
05:49PM 39.8772 -85.3603 302° West 117 135 6,000 -60 Level Indianapolis Center
05:50PM 39.8933 -85.3961 300° West 117 135 5,900  Descending Indianapolis Center
05:51PM 39.9100 -85.4314 302° West 116 133 6,000  Climbing Indianapolis Center
05:52PM 39.9267 -85.4661 302° West 115 132 6,000  Level Indianapolis Center
05:53PM 39.9531 -85.5022 314° West 114 131 6,000 -60 Level Indianapolis Center
05:54PM 39.9825 -85.5206 334° Northwest 116 133 5,900 -60 Descending Indianapolis Center
05:55PM 40.0108 -85.5425 329° Northwest 117 135 5,900  Level Indianapolis Center
05:56PM 40.0375 -85.5658 326° Northwest 117 135 5,900  Level Indianapolis Center
05:57PM 40.0622 -85.5931 320° Northwest 117 135 6,000  Climbing Indianapolis Center
05:58PM 40.0836 -85.6369 303° West 118 136 5,900  Descending Indianapolis Center
05:59PM 40.1017 -85.6725 304° West 119 137 6,000  Climbing Indianapolis Center
06:00PM 40.1183 -85.7100 300° West 119 137 6,000  Level Indianapolis Center
06:01PM 40.1367 -85.7461 304° West 119 137 6,000 -60 Level Indianapolis Center
06:02PM 40.1542 -85.7831 302° West 120 138 5,900 -60 Descending Indianapolis Center
06:03PM 40.1750 -85.8267 302° West 119 137 5,900  Level Indianapolis Center
06:04PM 40.1911 -85.8631 300° West 118 136 5,900  Level Indianapolis Center
06:05PM 40.2044 -85.8906 302° West 118 136 6,000  Climbing Chicago Center
06:06PM 40.2211 -85.9261 302° West 117 135 5,900  Descending Chicago Center
06:07PM 40.2411 -85.9703 301° West 118 136 6,000  Climbing Chicago Center
06:08PM 40.2578 -86.0067 301° West 118 136 6,000  Level Chicago Center
06:09PM 40.2731 -86.0442 298° West 117 135 6,000 -60 Level Chicago Center
06:10PM 40.2906 -86.0858 299° West 120 138 5,900  Descending Chicago Center
06:11PM 40.3114 -86.1142 314° West 118 136 6,000  Climbing Chicago Center
06:12PM 40.3342 -86.1536 307° West 119 137 6,000  Level Chicago Center
06:13PM 40.3581 -86.1933 308° West 118 136 6,000  Level Chicago Center
06:14PM 40.3772 -86.2214 312° West 117 135 6,000  Level Chicago Center
06:15PM 40.3978 -86.2556 308° West 118 136 6,000  Level Chicago Center
06:16PM 40.4175 -86.2894 307° West 117 135 6,000  Level Chicago Center
06:17PM 40.4372 -86.3219 309° West 115 132 6,000  Level Chicago Center
06:18PM 40.4547 -86.3569 303° West 119 137 6,000  Level Chicago Center
06:19PM 40.4725 -86.3881 307° West 121 139 6,000 -60 Level Chicago Center
06:20PM 40.4983 -86.4306 309° West 126 145 5,900 -60 Descending Chicago Center
06:21PM 40.5181 -86.4647 307° West 123 142 5,900  Level Chicago Center
06:22PM 40.5394 -86.5042 306° West 121 139 5,900  Level Chicago Center
06:23PM 40.5572 -86.5381 305° West 122 140 6,000  Climbing Chicago Center
06:24PM 40.5767 -86.5747 305° West 123 142 6,000 -60 Level Chicago Center
06:25PM 40.5964 -86.6089 307° West 123 142 5,900 -120 Descending Chicago Center
06:26PM 40.6058 -86.6225 312° West 123 142 5,900  Level Chicago Center
06:26PM 40.6181 -86.6431 308° West 123 142 5,900  Level Chicago Center
06:27PM 40.6278 -86.6564 314° West 120 138 5,900  Level Chicago Center
06:28PM 40.6458 -86.6953 301° West 123 142 5,900  Level Chicago Center
06:29PM 40.6642 -86.7325 303° West 122 140 5,900  Level Chicago Center
06:30PM 40.6869 -86.7722 307° West 116 133 6,000  Climbing Chicago Center
06:31PM 40.7058 -86.8036 308° West 118 136 6,000  Level Chicago Center
06:32PM 40.7308 -86.8444 309° West 120 138 6,000  Level Chicago Center
06:33PM 40.7508 -86.8794 307° West 120 138 6,000  Level Chicago Center
06:34PM 40.7697 -86.9175 303° West 121 139 6,000  Level Chicago Center
06:35PM 40.7911 -86.9525 309° West 123 142 6,000  Level Chicago Center
06:36PM 40.8117 -86.9883 307° West 123 142 6,000  Level Chicago Center
06:37PM 40.8372 -87.0317 308° West 124 143 6,000  Level Chicago Center
06:38PM 40.8578 -87.0683 307° West 122 140 6,000  Level Chicago Center
06:39PM 40.8797 -87.1022 311° West 123 142 6,000 -60 Level Chicago Center
06:40PM 40.9008 -87.1389 307° West 124 143 5,900 -60 Descending Chicago Center
06:41PM 40.9219 -87.1753 308° West 125 144 5,900 -300 Level Chicago Center
06:42PM 40.9478 -87.2253 304° West 135 155 5,300 -540 Descending Chicago Center
06:43PM 40.9706 -87.2683 305° West 141 162 4,800 -540 Descending Chicago Center
06:44PM 40.9950 -87.3069 310° West 140 161 4,200 -420 Descending Chicago Center
06:45PM 41.0186 -87.3453 309° West 138 159 4,000 -120 Descending Chicago Center
06:46PM 41.0381 -87.3792 307° West 129 148 4,000  Level Chicago Center
06:47PM 41.0603 -87.4217 305° West 121 139 4,000  Level Chicago Center
06:48PM 41.0792 -87.4542 308° West 116 133 4,000  Level Chicago Center
06:50PM 41.1000 -87.4889 309° West 118 136 4,000  Level Chicago Center
06:51PM 41.1200 -87.5236 307° West 119 137 4,000 -60 Level Chicago Center
06:52PM 41.1386 -87.5589 305° West 118 136 3,900  Descending Chicago Center
06:53PM 41.1608 -87.6022 304° West 119 137 4,000  Climbing Chicago Center
06:54PM 41.1789 -87.6383 304° West 119 137 4,000 -60 Level Chicago Center
06:55PM 41.1975 -87.6750 304° West 119 137 3,900  Descending Chicago Center
06:56PM 41.2150 -87.7131 301° West 121 139 4,000  Climbing Chicago Center
06:57PM 41.2331 -87.7503 303° West 120 138 4,000  Level Chicago Center
06:58PM 41.2572 -87.7908 308° West 118 136 4,000 -60 Level Chicago Center
06:59PM 41.2783 -87.8228 311° West 118 136 3,900  Descending Chicago Center
07:00PM 41.2969 -87.8581 305° West 117 135 4,000  Climbing Chicago Center
07:01PM 41.3156 -87.8933 305° West 118 136 4,000 -60 Level Chicago Center
07:02PM 41.3333 -87.9275 305° West 115 132 3,900 -60 Descending Chicago Center
07:03PM 41.3544 -87.9694 304° West 114 131 3,900  Level Chicago Center
07:04PM 41.3853 -87.9864 338° Northwest 122 140 3,900  Level Chicago Center
07:05PM 41.4097 -87.9978 341° North 120 138 3,900 -60 Level Chicago Center
07:06PM 41.4475 -88.0156 341° North 121 139 3,800 -60 Descending Chicago Center
07:07PM 41.4842 -88.0356 338° Northwest 122 140 3,800 60 Level Chicago Center
07:09PM 41.5450 -88.0683 338° Northwest 120 138 4,000  Climbing Chicago Center
07:10PM 41.5758 -88.0814 342° North 119 137 3,900 -60 Descending Chicago Center
07:11PM 41.6164 -88.0969 344° North 122 140 3,900  Level Chicago Center
07:12PM 41.6478 -88.1092 344° North 121 139 3,900 -240 Level Chicago Center
07:13PM 41.6819 -88.1217 345° North 123 142 3,500 -420 Descending Chicago Center
07:14PM 41.7147 -88.1406 337° Northwest 127 146 3,100 -360 Descending Chicago Center
07:15PM 41.7461 -88.1631 332° Northwest 128 147 2,800 -60 Descending Chicago Center
07:16PM 41.7817 -88.1850 335° Northwest 124 143 3,000 -120 Climbing Chicago Center
07:17PM 41.8122 -88.2039 335° Northwest 121 139 2,600 -480 Descending Chicago Center
07:18PM 41.8361 -88.2189 335° Northwest 111 128 2,100 -360 Descending Chicago Center
07:20PM 41.8622 -88.2083 17° North 103 119 1,900 -180 Descending Chicago Center
07:21PM 41.8881 -88.1989 15° North 101 116 1,800 -360 Descending Chicago Center
07:22PM 41.9097 -88.2111 337° Northwest 96 110 1,200 -600 Descending Chicago Center
07:24PM 41.9071 -88.2480 240° Southwest  Level Estimated